sensor_id;sensor_type;location;lat;lon;timestamp;temperature;humidity
22383;DHT22;11359;45.802;13.530;2022-12-19T00:01:41;14.40;36.10
22383;DHT22;11359;45.802;13.530;2022-12-19T00:04:08;14.30;36.20
22383;DHT22;11359;45.802;13.530;2022-12-19T00:06:34;14.30;36.30
22383;DHT22;11359;45.802;13.530;2022-12-19T00:09:00;14.20;36.30
22383;DHT22;11359;45.802;13.530;2022-12-19T00:11:27;14.20;36.30
22383;DHT22;11359;45.802;13.530;2022-12-19T00:13:52;14.10;36.40
22383;DHT22;11359;45.802;13.530;2022-12-19T00:16:19;14.10;36.40
22383;DHT22;11359;45.802;13.530;2022-12-19T00:18:45;14.10;36.50
22383;DHT22;11359;45.802;13.530;2022-12-19T00:21:12;14.00;36.40
22383;DHT22;11359;45.802;13.530;2022-12-19T00:23:38;13.90;36.30
22383;DHT22;11359;45.802;13.530;2022-12-19T00:26:08;13.90;36.30
22383;DHT22;11359;45.802;13.530;2022-12-19T00:28:34;13.80;36.50
22383;DHT22;11359;45.802;13.530;2022-12-19T00:31:00;13.80;36.70
22383;DHT22;11359;45.802;13.530;2022-12-19T00:33:25;13.70;36.70
22383;DHT22;11359;45.802;13.530;2022-12-19T00:35:55;13.60;36.80
22383;DHT22;11359;45.802;13.530;2022-12-19T00:38:21;13.60;36.90
22383;DHT22;11359;45.802;13.530;2022-12-19T00:40:47;13.60;37.00
22383;DHT22;11359;45.802;13.530;2022-12-19T00:43:12;13.50;37.10
22383;DHT22;11359;45.802;13.530;2022-12-19T00:45:38;13.50;37.00
22383;DHT22;11359;45.802;13.530;2022-12-19T00:48:03;13.40;36.80
22383;DHT22;11359;45.802;13.530;2022-12-19T00:50:29;13.40;36.80
22383;DHT22;11359;45.802;13.530;2022-12-19T00:52:55;13.30;36.80
22383;DHT22;11359;45.802;13.530;2022-12-19T00:55:20;13.30;36.90
22383;DHT22;11359;45.802;13.530;2022-12-19T00:57:46;13.30;37.00
22383;DHT22;11359;45.802;13.530;2022-12-19T01:00:11;13.20;37.10
22383;DHT22;11359;45.802;13.530;2022-12-19T01:02:37;13.20;37.30
22383;DHT22;11359;45.802;13.530;2022-12-19T01:05:03;13.10;38.00
22383;DHT22;11359;45.802;13.530;2022-12-19T01:07:28;13.10;37.60
22383;DHT22;11359;45.802;13.530;2022-12-19T01:09:54;13.10;37.60
22383;DHT22;11359;45.802;13.530;2022-12-19T01:12:19;13.10;37.60
22383;DHT22;11359;45.802;13.530;2022-12-19T01:15:04;13.00;37.40
22383;DHT22;11359;45.802;13.530;2022-12-19T01:17:29;13.00;37.50
22383;DHT22;11359;45.802;13.530;2022-12-19T01:19:55;13.00;37.50
22383;DHT22;11359;45.802;13.530;2022-12-19T01:22:20;12.90;37.40
22383;DHT22;11359;45.802;13.530;2022-12-19T01:24:46;12.90;37.40
22383;DHT22;11359;45.802;13.530;2022-12-19T01:27:11;12.80;37.40
22383;DHT22;11359;45.802;13.530;2022-12-19T01:29:37;12.80;37.50
22383;DHT22;11359;45.802;13.530;2022-12-19T01:32:03;12.80;37.60
22383;DHT22;11359;45.802;13.530;2022-12-19T01:34:28;12.70;37.80
22383;DHT22;11359;45.802;13.530;2022-12-19T01:36:54;12.70;37.80
22383;DHT22;11359;45.802;13.530;2022-12-19T01:39:19;12.60;37.80
22383;DHT22;11359;45.802;13.530;2022-12-19T01:41:45;12.60;37.80
22383;DHT22;11359;45.802;13.530;2022-12-19T01:44:10;12.60;37.80
22383;DHT22;11359;45.802;13.530;2022-12-19T01:49:05;12.50;38.00
22383;DHT22;11359;45.802;13.530;2022-12-19T01:51:33;12.50;38.00
22383;DHT22;11359;45.802;13.530;2022-12-19T01:54:03;12.50;38.00
22383;DHT22;11359;45.802;13.530;2022-12-19T01:56:30;12.50;38.10
22383;DHT22;11359;45.802;13.530;2022-12-19T01:58:57;12.40;38.20
22383;DHT22;11359;45.802;13.530;2022-12-19T02:01:25;12.40;38.40
22383;DHT22;11359;45.802;13.530;2022-12-19T02:03:51;12.40;38.40
22383;DHT22;11359;45.802;13.530;2022-12-19T02:06:17;12.30;38.40
22383;DHT22;11359;45.802;13.530;2022-12-19T02:08:43;12.40;38.50
22383;DHT22;11359;45.802;13.530;2022-12-19T02:11:10;12.30;38.50
22383;DHT22;11359;45.802;13.530;2022-12-19T02:13:35;12.30;38.30
22383;DHT22;11359;45.802;13.530;2022-12-19T02:16:05;12.20;38.20
22383;DHT22;11359;45.802;13.530;2022-12-19T02:21:21;12.20;38.30
22383;DHT22;11359;45.802;13.530;2022-12-19T02:24:07;12.10;38.40
22383;DHT22;11359;45.802;13.530;2022-12-19T02:36:37;12.00;38.90
22383;DHT22;11359;45.802;13.530;2022-12-19T02:39:08;12.00;38.90
22383;DHT22;11359;45.802;13.530;2022-12-19T02:41:38;12.00;38.80
22383;DHT22;11359;45.802;13.530;2022-12-19T02:44:15;12.00;38.80
22383;DHT22;11359;45.802;13.530;2022-12-19T02:46:41;12.00;38.80
22383;DHT22;11359;45.802;13.530;2022-12-19T02:49:08;11.90;38.80
22383;DHT22;11359;45.802;13.530;2022-12-19T02:51:34;11.90;38.80
22383;DHT22;11359;45.802;13.530;2022-12-19T02:53:59;11.90;38.80
22383;DHT22;11359;45.802;13.530;2022-12-19T03:04:14;11.80;38.90
22383;DHT22;11359;45.802;13.530;2022-12-19T03:06:44;11.70;39.00
22383;DHT22;11359;45.802;13.530;2022-12-19T03:09:34;11.70;39.10
22383;DHT22;11359;45.802;13.530;2022-12-19T03:12:08;11.70;39.20
22383;DHT22;11359;45.802;13.530;2022-12-19T03:14:36;11.70;39.30
22383;DHT22;11359;45.802;13.530;2022-12-19T03:17:04;11.70;39.40
22383;DHT22;11359;45.802;13.530;2022-12-19T03:19:31;11.60;39.40
22383;DHT22;11359;45.802;13.530;2022-12-19T03:21:57;11.60;39.50
22383;DHT22;11359;45.802;13.530;2022-12-19T03:24:23;11.60;39.50
22383;DHT22;11359;45.802;13.530;2022-12-19T03:26:53;11.60;39.60
22383;DHT22;11359;45.802;13.530;2022-12-19T03:29:21;11.60;39.60
22383;DHT22;11359;45.802;13.530;2022-12-19T03:31:49;11.60;39.70
22383;DHT22;11359;45.802;13.530;2022-12-19T03:34:17;11.60;39.70
22383;DHT22;11359;45.802;13.530;2022-12-19T03:36:46;11.50;39.70
22383;DHT22;11359;45.802;13.530;2022-12-19T03:39:13;11.50;39.70
22383;DHT22;11359;45.802;13.530;2022-12-19T03:41:39;11.50;39.60
22383;DHT22;11359;45.802;13.530;2022-12-19T03:44:24;11.50;39.60
22383;DHT22;11359;45.802;13.530;2022-12-19T03:46:53;11.40;39.70
22383;DHT22;11359;45.802;13.530;2022-12-19T03:49:22;11.50;39.70
22383;DHT22;11359;45.802;13.530;2022-12-19T03:51:58;11.40;39.60
22383;DHT22;11359;45.802;13.530;2022-12-19T03:54:27;11.40;39.70
22383;DHT22;11359;45.802;13.530;2022-12-19T04:02:00;11.30;39.90
22383;DHT22;11359;45.802;13.530;2022-12-19T04:04:26;11.20;40.00
22383;DHT22;11359;45.802;13.530;2022-12-19T04:06:51;11.20;40.00
22383;DHT22;11359;45.802;13.530;2022-12-19T04:09:17;11.20;40.10
22383;DHT22;11359;45.802;13.530;2022-12-19T04:11:45;11.20;40.10
22383;DHT22;11359;45.802;13.530;2022-12-19T04:14:16;11.20;40.10
22383;DHT22;11359;45.802;13.530;2022-12-19T04:16:45;11.10;40.20
22383;DHT22;11359;45.802;13.530;2022-12-19T04:19:34;11.20;40.30
22383;DHT22;11359;45.802;13.530;2022-12-19T04:22:03;11.20;40.30
22383;DHT22;11359;45.802;13.530;2022-12-19T04:24:32;11.20;40.40
22383;DHT22;11359;45.802;13.530;2022-12-19T04:26:58;11.10;40.40
22383;DHT22;11359;45.802;13.530;2022-12-19T04:29:26;11.10;40.40
22383;DHT22;11359;45.802;13.530;2022-12-19T04:31:52;11.10;40.40
22383;DHT22;11359;45.802;13.530;2022-12-19T04:34:18;11.20;40.40
22383;DHT22;11359;45.802;13.530;2022-12-19T04:36:45;11.20;40.40
22383;DHT22;11359;45.802;13.530;2022-12-19T04:39:10;11.10;40.40
22383;DHT22;11359;45.802;13.530;2022-12-19T04:41:36;11.10;40.40
22383;DHT22;11359;45.802;13.530;2022-12-19T04:44:01;11.10;40.50
22383;DHT22;11359;45.802;13.530;2022-12-19T04:46:27;11.10;40.60
22383;DHT22;11359;45.802;13.530;2022-12-19T04:48:52;11.10;40.60
22383;DHT22;11359;45.802;13.530;2022-12-19T04:51:18;11.10;40.70
22383;DHT22;11359;45.802;13.530;2022-12-19T04:53:43;11.10;40.70
22383;DHT22;11359;45.802;13.530;2022-12-19T04:56:09;11.10;40.70
22383;DHT22;11359;45.802;13.530;2022-12-19T04:58:34;11.10;40.80
22383;DHT22;11359;45.802;13.530;2022-12-19T05:01:01;11.10;40.70
22383;DHT22;11359;45.802;13.530;2022-12-19T05:03:26;11.10;40.80
22383;DHT22;11359;45.802;13.530;2022-12-19T05:05:52;11.10;40.70
22383;DHT22;11359;45.802;13.530;2022-12-19T05:08:17;11.10;40.70
22383;DHT22;11359;45.802;13.530;2022-12-19T05:10:43;11.10;40.70
22383;DHT22;11359;45.802;13.530;2022-12-19T05:13:09;11.10;40.70
22383;DHT22;11359;45.802;13.530;2022-12-19T05:15:34;11.00;40.70
22383;DHT22;11359;45.802;13.530;2022-12-19T05:18:00;11.00;40.70
22383;DHT22;11359;45.802;13.530;2022-12-19T05:20:25;11.00;40.80
22383;DHT22;11359;45.802;13.530;2022-12-19T05:22:51;11.00;40.80
22383;DHT22;11359;45.802;13.530;2022-12-19T05:25:16;11.00;40.90
22383;DHT22;11359;45.802;13.530;2022-12-19T05:27:42;10.90;40.90
22383;DHT22;11359;45.802;13.530;2022-12-19T05:30:07;11.00;41.10
22383;DHT22;11359;45.802;13.530;2022-12-19T05:32:33;11.00;41.20
22383;DHT22;11359;45.802;13.530;2022-12-19T05:34:59;11.00;41.20
22383;DHT22;11359;45.802;13.530;2022-12-19T05:37:24;11.00;41.20
22383;DHT22;11359;45.802;13.530;2022-12-19T05:39:50;11.00;41.30
22383;DHT22;11359;45.802;13.530;2022-12-19T05:42:16;11.00;41.20
22383;DHT22;11359;45.802;13.530;2022-12-19T05:44:41;11.00;41.20
22383;DHT22;11359;45.802;13.530;2022-12-19T05:47:07;11.00;41.10
22383;DHT22;11359;45.802;13.530;2022-12-19T05:49:32;11.00;41.10
22383;DHT22;11359;45.802;13.530;2022-12-19T05:51:58;11.00;41.10
22383;DHT22;11359;45.802;13.530;2022-12-19T05:54:23;11.10;41.10
22383;DHT22;11359;45.802;13.530;2022-12-19T05:56:49;11.10;41.10
22383;DHT22;11359;45.802;13.530;2022-12-19T05:59:15;11.10;41.20
22383;DHT22;11359;45.802;13.530;2022-12-19T06:01:40;11.10;41.30
22383;DHT22;11359;45.802;13.530;2022-12-19T06:04:06;11.20;41.40
22383;DHT22;11359;45.802;13.530;2022-12-19T06:06:32;11.20;41.40
22383;DHT22;11359;45.802;13.530;2022-12-19T06:08:57;11.30;41.40
22383;DHT22;11359;45.802;13.530;2022-12-19T06:11:23;11.30;41.30
22383;DHT22;11359;45.802;13.530;2022-12-19T06:13:49;11.40;41.30
22383;DHT22;11359;45.802;13.530;2022-12-19T06:16:16;11.40;41.20
22383;DHT22;11359;45.802;13.530;2022-12-19T06:18:42;11.50;41.20
22383;DHT22;11359;45.802;13.530;2022-12-19T06:21:10;11.60;41.20
22383;DHT22;11359;45.802;13.530;2022-12-19T06:23:36;11.60;41.10
22383;DHT22;11359;45.802;13.530;2022-12-19T06:26:03;11.70;41.10
22383;DHT22;11359;45.802;13.530;2022-12-19T06:28:29;11.70;41.00
22383;DHT22;11359;45.802;13.530;2022-12-19T06:30:55;11.80;41.00
22383;DHT22;11359;45.802;13.530;2022-12-19T06:33:21;11.90;40.90
22383;DHT22;11359;45.802;13.530;2022-12-19T06:35:47;11.90;40.80
22383;DHT22;11359;45.802;13.530;2022-12-19T06:38:12;12.00;40.80
22383;DHT22;11359;45.802;13.530;2022-12-19T06:40:41;12.10;40.90
22383;DHT22;11359;45.802;13.530;2022-12-19T06:43:25;12.10;40.90
22383;DHT22;11359;45.802;13.530;2022-12-19T06:45:51;12.20;40.80
22383;DHT22;11359;45.802;13.530;2022-12-19T06:48:17;12.20;40.80
22383;DHT22;11359;45.802;13.530;2022-12-19T06:50:42;12.30;40.80
22383;DHT22;11359;45.802;13.530;2022-12-19T06:53:08;12.40;40.70
22383;DHT22;11359;45.802;13.530;2022-12-19T06:55:34;12.40;40.70
22383;DHT22;11359;45.802;13.530;2022-12-19T06:58:00;12.50;40.70
22383;DHT22;11359;45.802;13.530;2022-12-19T07:00:25;12.60;40.70
22383;DHT22;11359;45.802;13.530;2022-12-19T07:02:51;12.60;40.50
22383;DHT22;11359;45.802;13.530;2022-12-19T07:05:18;12.70;40.40
22383;DHT22;11359;45.802;13.530;2022-12-19T07:07:43;12.70;40.20
22383;DHT22;11359;45.802;13.530;2022-12-19T07:10:09;12.70;40.00
22383;DHT22;11359;45.802;13.530;2022-12-19T07:12:35;12.70;40.60
22383;DHT22;11359;45.802;13.530;2022-12-19T07:15:00;12.80;39.90
22383;DHT22;11359;45.802;13.530;2022-12-19T07:17:26;12.80;39.80
22383;DHT22;11359;45.802;13.530;2022-12-19T07:19:53;12.80;39.80
22383;DHT22;11359;45.802;13.530;2022-12-19T07:22:18;12.80;39.90
22383;DHT22;11359;45.802;13.530;2022-12-19T07:24:44;12.80;39.90
22383;DHT22;11359;45.802;13.530;2022-12-19T07:27:10;12.80;39.90
22383;DHT22;11359;45.802;13.530;2022-12-19T07:29:36;12.90;40.00
22383;DHT22;11359;45.802;13.530;2022-12-19T07:32:01;12.90;40.00
22383;DHT22;11359;45.802;13.530;2022-12-19T07:34:27;12.90;40.00
22383;DHT22;11359;45.802;13.530;2022-12-19T07:36:52;12.90;39.90
22383;DHT22;11359;45.802;13.530;2022-12-19T07:39:18;13.00;39.80
22383;DHT22;11359;45.802;13.530;2022-12-19T07:41:43;13.00;39.70
22383;DHT22;11359;45.802;13.530;2022-12-19T07:44:09;13.00;39.70
22383;DHT22;11359;45.802;13.530;2022-12-19T07:46:37;13.00;39.60
22383;DHT22;11359;45.802;13.530;2022-12-19T07:49:03;13.00;39.70
22383;DHT22;11359;45.802;13.530;2022-12-19T07:51:28;13.00;39.70
22383;DHT22;11359;45.802;13.530;2022-12-19T07:53:54;13.00;39.60
22383;DHT22;11359;45.802;13.530;2022-12-19T07:56:19;13.00;39.50
22383;DHT22;11359;45.802;13.530;2022-12-19T07:58:45;13.00;39.60
22383;DHT22;11359;45.802;13.530;2022-12-19T08:01:10;13.00;39.60
22383;DHT22;11359;45.802;13.530;2022-12-19T08:03:36;13.00;39.60
22383;DHT22;11359;45.802;13.530;2022-12-19T08:06:03;13.00;39.60
22383;DHT22;11359;45.802;13.530;2022-12-19T08:08:29;13.00;39.60
22383;DHT22;11359;45.802;13.530;2022-12-19T08:10:55;13.00;39.60
22383;DHT22;11359;45.802;13.530;2022-12-19T08:13:21;13.00;39.60
22383;DHT22;11359;45.802;13.530;2022-12-19T08:15:47;13.00;39.60
22383;DHT22;11359;45.802;13.530;2022-12-19T08:18:12;13.00;39.60
22383;DHT22;11359;45.802;13.530;2022-12-19T08:20:38;12.90;39.60
22383;DHT22;11359;45.802;13.530;2022-12-19T08:23:03;13.00;39.70
22383;DHT22;11359;45.802;13.530;2022-12-19T08:25:29;13.00;39.60
22383;DHT22;11359;45.802;13.530;2022-12-19T08:27:54;13.00;39.70
22383;DHT22;11359;45.802;13.530;2022-12-19T08:30:20;12.90;39.70
22383;DHT22;11359;45.802;13.530;2022-12-19T08:32:45;13.00;39.80
22383;DHT22;11359;45.802;13.530;2022-12-19T08:35:12;12.90;39.80
22383;DHT22;11359;45.802;13.530;2022-12-19T08:37:37;13.00;39.80
22383;DHT22;11359;45.802;13.530;2022-12-19T08:40:03;13.00;39.90
22383;DHT22;11359;45.802;13.530;2022-12-19T08:42:29;12.90;39.80
22383;DHT22;11359;45.802;13.530;2022-12-19T08:44:54;13.00;39.80
22383;DHT22;11359;45.802;13.530;2022-12-19T08:47:20;13.00;39.80
22383;DHT22;11359;45.802;13.530;2022-12-19T08:49:46;13.00;39.90
22383;DHT22;11359;45.802;13.530;2022-12-19T08:52:11;13.00;40.00
22383;DHT22;11359;45.802;13.530;2022-12-19T08:54:37;13.00;40.00
22383;DHT22;11359;45.802;13.530;2022-12-19T08:57:02;13.00;40.10
22383;DHT22;11359;45.802;13.530;2022-12-19T08:59:28;12.90;40.20
22383;DHT22;11359;45.802;13.530;2022-12-19T09:01:53;13.00;40.20
22383;DHT22;11359;45.802;13.530;2022-12-19T09:04:19;13.00;40.20
22383;DHT22;11359;45.802;13.530;2022-12-19T09:06:45;13.00;40.20
22383;DHT22;11359;45.802;13.530;2022-12-19T09:09:10;13.00;40.30
22383;DHT22;11359;45.802;13.530;2022-12-19T09:11:36;13.00;40.30
22383;DHT22;11359;45.802;13.530;2022-12-19T09:14:01;13.00;40.30
22383;DHT22;11359;45.802;13.530;2022-12-19T09:16:27;13.00;40.40
22383;DHT22;11359;45.802;13.530;2022-12-19T09:18:53;13.00;40.40
22383;DHT22;11359;45.802;13.530;2022-12-19T09:21:20;13.00;40.40
22383;DHT22;11359;45.802;13.530;2022-12-19T09:23:47;13.10;40.50
22383;DHT22;11359;45.802;13.530;2022-12-19T09:26:13;13.10;40.60
22383;DHT22;11359;45.802;13.530;2022-12-19T09:28:39;13.10;40.60
22383;DHT22;11359;45.802;13.530;2022-12-19T09:31:15;13.10;40.60
22383;DHT22;11359;45.802;13.530;2022-12-19T09:33:41;13.20;40.70
22383;DHT22;11359;45.802;13.530;2022-12-19T09:36:07;13.20;40.70
22383;DHT22;11359;45.802;13.530;2022-12-19T09:38:35;13.20;40.70
22383;DHT22;11359;45.802;13.530;2022-12-19T09:48:35;13.30;40.80
22383;DHT22;11359;45.802;13.530;2022-12-19T09:51:11;13.30;40.70
22383;DHT22;11359;45.802;13.530;2022-12-19T09:56:09;13.30;40.70
22383;DHT22;11359;45.802;13.530;2022-12-19T09:58:42;13.30;40.80
22383;DHT22;11359;45.802;13.530;2022-12-19T10:01:18;13.30;40.80
22383;DHT22;11359;45.802;13.530;2022-12-19T10:06:29;13.30;40.80
22383;DHT22;11359;45.802;13.530;2022-12-19T10:08:55;13.30;40.90
22383;DHT22;11359;45.802;13.530;2022-12-19T10:16:15;13.40;41.10
22383;DHT22;11359;45.802;13.530;2022-12-19T10:18:55;13.40;41.10
22383;DHT22;11359;45.802;13.530;2022-12-19T10:21:28;13.40;41.20
22383;DHT22;11359;45.802;13.530;2022-12-19T10:26:37;13.40;41.20
22383;DHT22;11359;45.802;13.530;2022-12-19T10:35:01;13.50;41.30
22383;DHT22;11359;45.802;13.530;2022-12-19T10:40:02;13.50;41.30
22383;DHT22;11359;45.802;13.530;2022-12-19T10:45:14;13.50;41.30
22383;DHT22;11359;45.802;13.530;2022-12-19T10:47:40;13.50;41.30
22383;DHT22;11359;45.802;13.530;2022-12-19T10:50:10;13.60;41.20
22383;DHT22;11359;45.802;13.530;2022-12-19T10:53:04;13.50;41.20
22383;DHT22;11359;45.802;13.530;2022-12-19T10:57:51;13.50;41.90
22383;DHT22;11359;45.802;13.530;2022-12-19T11:00:16;13.50;41.20
22383;DHT22;11359;45.802;13.530;2022-12-19T11:05:25;13.60;41.30
22383;DHT22;11359;45.802;13.530;2022-12-19T11:10:33;13.60;41.30
22383;DHT22;11359;45.802;13.530;2022-12-19T11:12:59;13.60;41.30
22383;DHT22;11359;45.802;13.530;2022-12-19T11:15:24;13.60;41.30
22383;DHT22;11359;45.802;13.530;2022-12-19T11:17:50;13.60;41.30
22383;DHT22;11359;45.802;13.530;2022-12-19T11:20:20;13.60;41.30
22383;DHT22;11359;45.802;13.530;2022-12-19T11:22:55;13.60;41.40
22383;DHT22;11359;45.802;13.530;2022-12-19T11:25:22;13.70;41.50
22383;DHT22;11359;45.802;13.530;2022-12-19T11:27:54;13.60;41.40
22383;DHT22;11359;45.802;13.530;2022-12-19T11:30:24;13.70;41.40
22383;DHT22;11359;45.802;13.530;2022-12-19T11:33:07;13.70;41.30
22383;DHT22;11359;45.802;13.530;2022-12-19T11:35:32;13.70;41.40
22383;DHT22;11359;45.802;13.530;2022-12-19T11:38:09;13.70;41.50
22383;DHT22;11359;45.802;13.530;2022-12-19T11:40:40;13.80;41.50
22383;DHT22;11359;45.802;13.530;2022-12-19T11:43:14;13.80;41.50
22383;DHT22;11359;45.802;13.530;2022-12-19T11:51:00;13.90;41.60
22383;DHT22;11359;45.802;13.530;2022-12-19T11:53:38;13.90;41.60
22383;DHT22;11359;45.802;13.530;2022-12-19T11:56:08;14.00;41.50
22383;DHT22;11359;45.802;13.530;2022-12-19T11:58:35;14.10;41.50
22383;DHT22;11359;45.802;13.530;2022-12-19T12:05:54;14.20;41.60
22383;DHT22;11359;45.802;13.530;2022-12-19T12:13:41;14.40;41.50
22383;DHT22;11359;45.802;13.530;2022-12-19T12:16:12;14.40;41.50
22383;DHT22;11359;45.802;13.530;2022-12-19T12:21:23;14.50;41.30
22383;DHT22;11359;45.802;13.530;2022-12-19T12:24:00;14.60;41.30
22383;DHT22;11359;45.802;13.530;2022-12-19T12:26:30;14.60;41.30
22383;DHT22;11359;45.802;13.530;2022-12-19T12:44:44;15.10;41.10
22383;DHT22;11359;45.802;13.530;2022-12-19T12:47:17;15.10;41.10
22383;DHT22;11359;45.802;13.530;2022-12-19T12:52:13;15.20;40.80
22383;DHT22;11359;45.802;13.530;2022-12-19T12:54:40;15.30;40.70
22383;DHT22;11359;45.802;13.530;2022-12-19T12:57:11;15.30;40.60
22383;DHT22;11359;45.802;13.530;2022-12-19T12:59:39;15.40;40.30
22383;DHT22;11359;45.802;13.530;2022-12-19T13:02:21;15.40;40.20
22383;DHT22;11359;45.802;13.530;2022-12-19T13:04:56;15.50;40.20
22383;DHT22;11359;45.802;13.530;2022-12-19T13:07:31;15.50;40.10
22383;DHT22;11359;45.802;13.530;2022-12-19T13:10:04;15.50;40.10
22383;DHT22;11359;45.802;13.530;2022-12-19T13:12:30;15.50;40.20
22383;DHT22;11359;45.802;13.530;2022-12-19T13:15:17;15.60;40.30
22383;DHT22;11359;45.802;13.530;2022-12-19T13:22:40;15.80;40.50
22383;DHT22;11359;45.802;13.530;2022-12-19T13:27:54;15.90;40.50
22383;DHT22;11359;45.802;13.530;2022-12-19T13:30:20;16.00;40.40
22383;DHT22;11359;45.802;13.530;2022-12-19T13:42:58;16.30;39.90
22383;DHT22;11359;45.802;13.530;2022-12-19T13:45:47;16.30;39.70
22383;DHT22;11359;45.802;13.530;2022-12-19T13:48:15;16.40;39.60
22383;DHT22;11359;45.802;13.530;2022-12-19T13:50:45;16.40;39.60
22383;DHT22;11359;45.802;13.530;2022-12-19T13:53:15;16.40;39.60
22383;DHT22;11359;45.802;13.530;2022-12-19T13:55:41;16.50;39.60
22383;DHT22;11359;45.802;13.530;2022-12-19T13:58:13;16.50;39.50
22383;DHT22;11359;45.802;13.530;2022-12-19T14:00:40;16.50;39.40
22383;DHT22;11359;45.802;13.530;2022-12-19T14:03:10;16.50;39.30
22383;DHT22;11359;45.802;13.530;2022-12-19T14:05:38;16.50;39.30
22383;DHT22;11359;45.802;13.530;2022-12-19T14:08:04;16.60;39.50
22383;DHT22;11359;45.802;13.530;2022-12-19T14:10:34;16.60;39.50
22383;DHT22;11359;45.802;13.530;2022-12-19T14:13:07;16.70;39.50
22383;DHT22;11359;45.802;13.530;2022-12-19T14:15:55;16.70;39.50
22383;DHT22;11359;45.802;13.530;2022-12-19T14:18:21;16.80;39.50
22383;DHT22;11359;45.802;13.530;2022-12-19T14:20:48;16.80;39.50
22383;DHT22;11359;45.802;13.530;2022-12-19T14:23:14;16.80;39.50
22383;DHT22;11359;45.802;13.530;2022-12-19T14:25:52;16.90;39.40
22383;DHT22;11359;45.802;13.530;2022-12-19T14:28:20;16.90;39.40
22383;DHT22;11359;45.802;13.530;2022-12-19T14:30:52;16.90;39.30
22383;DHT22;11359;45.802;13.530;2022-12-19T14:33:21;16.90;39.30
22383;DHT22;11359;45.802;13.530;2022-12-19T14:35:48;17.00;39.30
22383;DHT22;11359;45.802;13.530;2022-12-19T14:38:18;17.00;39.30
22383;DHT22;11359;45.802;13.530;2022-12-19T14:40:45;17.10;39.30
22383;DHT22;11359;45.802;13.530;2022-12-19T14:43:15;17.10;39.20
22383;DHT22;11359;45.802;13.530;2022-12-19T14:46:35;17.10;39.20
22383;DHT22;11359;45.802;13.530;2022-12-19T14:48:57;17.20;39.20
22383;DHT22;11359;45.802;13.530;2022-12-19T14:51:25;17.20;39.20
22383;DHT22;11359;45.802;13.530;2022-12-19T14:54:01;17.20;39.10
22383;DHT22;11359;45.802;13.530;2022-12-19T14:56:27;17.20;39.00
22383;DHT22;11359;45.802;13.530;2022-12-19T14:58:55;17.30;39.00
22383;DHT22;11359;45.802;13.530;2022-12-19T15:01:25;17.30;39.00
22383;DHT22;11359;45.802;13.530;2022-12-19T15:03:55;17.30;38.90
22383;DHT22;11359;45.802;13.530;2022-12-19T15:06:23;17.30;38.80
22383;DHT22;11359;45.802;13.530;2022-12-19T15:08:50;17.40;38.80
22383;DHT22;11359;45.802;13.530;2022-12-19T15:11:32;17.30;38.60
22383;DHT22;11359;45.802;13.530;2022-12-19T15:14:23;17.40;38.60
22383;DHT22;11359;45.802;13.530;2022-12-19T15:16:48;17.40;38.60
22383;DHT22;11359;45.802;13.530;2022-12-19T15:19:24;17.40;38.60
22383;DHT22;11359;45.802;13.530;2022-12-19T15:21:50;17.40;38.50
22383;DHT22;11359;45.802;13.530;2022-12-19T15:24:15;17.40;38.50
22383;DHT22;11359;45.802;13.530;2022-12-19T15:26:51;17.40;38.50
22383;DHT22;11359;45.802;13.530;2022-12-19T15:29:17;17.50;38.50
22383;DHT22;11359;45.802;13.530;2022-12-19T15:31:42;17.50;38.40
22383;DHT22;11359;45.802;13.530;2022-12-19T15:36:52;17.50;38.40
22383;DHT22;11359;45.802;13.530;2022-12-19T15:39:18;17.50;38.40
22383;DHT22;11359;45.802;13.530;2022-12-19T15:41:44;17.50;38.40
22383;DHT22;11359;45.802;13.530;2022-12-19T15:44:18;17.50;38.30
22383;DHT22;11359;45.802;13.530;2022-12-19T15:46:45;17.50;38.30
22383;DHT22;11359;45.802;13.530;2022-12-19T15:49:14;17.50;38.30
22383;DHT22;11359;45.802;13.530;2022-12-19T15:51:40;17.50;38.20
22383;DHT22;11359;45.802;13.530;2022-12-19T15:54:06;17.50;38.20
22383;DHT22;11359;45.802;13.530;2022-12-19T15:56:32;17.50;38.20
22383;DHT22;11359;45.802;13.530;2022-12-19T15:58:59;17.50;38.10
22383;DHT22;11359;45.802;13.530;2022-12-19T16:01:26;17.60;38.20
22383;DHT22;11359;45.802;13.530;2022-12-19T16:03:51;17.60;38.10
22383;DHT22;11359;45.802;13.530;2022-12-19T16:06:17;17.60;38.10
22383;DHT22;11359;45.802;13.530;2022-12-19T16:08:43;17.60;38.10
22383;DHT22;11359;45.802;13.530;2022-12-19T16:11:19;17.60;38.10
22383;DHT22;11359;45.802;13.530;2022-12-19T16:13:45;17.60;38.00
22383;DHT22;11359;45.802;13.530;2022-12-19T16:16:13;17.60;38.00
22383;DHT22;11359;45.802;13.530;2022-12-19T16:18:39;17.60;37.90
22383;DHT22;11359;45.802;13.530;2022-12-19T16:21:12;17.60;37.80
22383;DHT22;11359;45.802;13.530;2022-12-19T16:23:41;17.70;37.70
22383;DHT22;11359;45.802;13.530;2022-12-19T16:26:07;17.60;37.60
22383;DHT22;11359;45.802;13.530;2022-12-19T16:28:37;17.60;37.60
22383;DHT22;11359;45.802;13.530;2022-12-19T16:31:12;17.70;37.60
22383;DHT22;11359;45.802;13.530;2022-12-19T16:33:38;17.70;37.50
22383;DHT22;11359;45.802;13.530;2022-12-19T16:36:03;17.70;37.50
22383;DHT22;11359;45.802;13.530;2022-12-19T16:38:29;17.70;37.40
22383;DHT22;11359;45.802;13.530;2022-12-19T16:40:54;17.70;37.30
22383;DHT22;11359;45.802;13.530;2022-12-19T16:43:29;17.70;37.20
22383;DHT22;11359;45.802;13.530;2022-12-19T16:45:56;17.70;37.20
22383;DHT22;11359;45.802;13.530;2022-12-19T16:48:22;17.70;37.20
22383;DHT22;11359;45.802;13.530;2022-12-19T16:50:48;17.70;37.20
22383;DHT22;11359;45.802;13.530;2022-12-19T16:53:14;17.70;37.10
22383;DHT22;11359;45.802;13.530;2022-12-19T16:55:40;17.70;37.10
22383;DHT22;11359;45.802;13.530;2022-12-19T16:58:07;17.70;37.00
22383;DHT22;11359;45.802;13.530;2022-12-19T17:00:36;17.70;36.90
22383;DHT22;11359;45.802;13.530;2022-12-19T17:03:05;17.70;36.80
22383;DHT22;11359;45.802;13.530;2022-12-19T17:05:31;17.70;36.80
22383;DHT22;11359;45.802;13.530;2022-12-19T17:07:57;17.70;36.90
22383;DHT22;11359;45.802;13.530;2022-12-19T17:10:26;17.70;36.80
22383;DHT22;11359;45.802;13.530;2022-12-19T17:12:53;17.70;36.90
22383;DHT22;11359;45.802;13.530;2022-12-19T17:15:21;17.70;36.80
22383;DHT22;11359;45.802;13.530;2022-12-19T17:17:47;17.70;36.70
22383;DHT22;11359;45.802;13.530;2022-12-19T17:20:14;17.80;36.70
22383;DHT22;11359;45.802;13.530;2022-12-19T17:22:41;17.80;36.60
22383;DHT22;11359;45.802;13.530;2022-12-19T17:25:13;17.80;36.60